Time;durP1;ratioP1;P1;durP2;ratioP2;P2;SDS_P1;SDS_P2;PMS_P1;PMS_P2;Temp;Humidity;BMP_temperature;BMP_pressure;BME280_temperature;BME280_humidity;BME280_pressure;Samples;Min_cycle;Max_cycle;Signal;HPM_P1;HPM_P2
2021/10/14 00:01:50;;;;;;;;;;;;;;;14.19;51.73;102050.47;5092922;28;19924;-59
2021/10/14 00:04:17;;;;;;;;;;;;;;;14.24;51.52;102047.59;5093073;28;19931;-59
2021/10/14 00:06:45;;;;;;;;;;;;;;;14.23;51.68;102045.03;5093107;28;19931;-60
2021/10/14 00:09:12;;;;;;;;;;;;;;;14.24;51.76;102050.22;5092236;28;19924;-59
2021/10/14 00:11:39;;;;;;;;;;;;;;;14.25;51.63;102054.56;5090292;28;20441;-59
2021/10/14 00:14:06;;;;;;;;;;;;;;;14.27;51.54;102059.78;5092819;28;19924;-59
2021/10/14 00:16:32;;;;;;;;;;;;;;;14.25;51.62;102051.09;5092997;28;19931;-60
2021/10/14 00:19:00;;;;;;;;;;;;;;;14.23;51.44;102053.78;5078471;28;19928;-59
2021/10/14 00:21:26;;;;;;;;;;;;;;;14.23;51.51;102064.34;5092878;28;19985;-59
2021/10/14 00:23:53;;;;;;;;;;;;;;;14.21;51.48;102059.16;5092509;28;19959;-59
2021/10/14 00:26:19;;;;;;;;;;;;;;;14.20;51.50;102062.72;5092790;28;19924;-59
2021/10/14 00:28:46;;;;;;;;;;;;;;;14.20;51.42;102057.44;5091745;28;19928;-58
2021/10/14 00:31:13;;;;;;;;;;;;;;;14.20;51.47;102062.72;5090660;28;19977;-60
2021/10/14 00:33:39;;;;;;;;;;;;;;;14.23;51.30;102074.91;5092504;28;20300;-59
2021/10/14 00:36:06;;;;;;;;;;;;;;;14.25;51.20;102090.69;5092382;28;19928;-60
2021/10/14 00:38:32;;;;;;;;;;;;;;;14.13;51.30;102085.09;5092164;28;19931;-59
2021/10/14 00:40:59;;;;;;;;;;;;;;;14.15;51.22;102083.22;5091967;28;19924;-56
2021/10/14 00:43:25;;;;;;;;;;;;;;;14.19;51.00;102087.44;5091939;28;19969;-56
2021/10/14 00:45:52;;;;;;;;;;;;;;;14.19;50.79;102087.44;5088172;28;19954;-57
2021/10/14 00:48:19;;;;;;;;;;;;;;;14.25;50.80;102088.06;5092646;28;19974;-57
2021/10/14 00:50:46;;;;;;;;;;;;;;;14.24;50.48;102079.28;5092225;28;19954;-58
2021/10/14 00:53:13;;;;;;;;;;;;;;;14.27;50.68;102089.69;5092533;28;19924;-58
2021/10/14 00:55:40;;;;;;;;;;;;;;;14.26;50.80;102087.97;5092393;28;19939;-59
2021/10/14 00:58:07;;;;;;;;;;;;;;;14.25;50.67;102082.78;5092102;28;19957;-56
2021/10/14 01:00:33;;;;;;;;;;;;;;;14.25;50.80;102088.06;5091224;28;19928;-56
2021/10/14 01:03:01;;;;;;;;;;;;;;;14.21;51.03;102087.34;5091824;28;20346;-57
2021/10/14 01:05:27;;;;;;;;;;;;;;;14.17;51.04;102084.00;5092246;28;20019;-57
2021/10/14 01:07:54;;;;;;;;;;;;;;;14.11;51.23;102081.69;5092663;28;20277;-57
2021/10/14 01:10:21;;;;;;;;;;;;;;;14.03;51.56;102084.69;5091979;28;19931;-57
2021/10/14 01:12:48;;;;;;;;;;;;;;;14.02;51.59;102082.16;5092147;28;19924;-57
2021/10/14 01:15:22;;;;;;;;;;;;;;;13.98;51.81;102081.44;5085309;28;19931;-57
2021/10/14 01:17:48;;;;;;;;;;;;;;;14.00;51.86;102078.72;5081362;28;19924;-56
2021/10/14 01:20:15;;;;;;;;;;;;;;;14.00;51.55;102073.44;5079083;28;19929;-57
2021/10/14 01:22:41;;;;;;;;;;;;;;;14.00;51.89;102076.91;5092078;28;20446;-56
2021/10/14 01:25:08;;;;;;;;;;;;;;;14.00;51.94;102073.44;5091541;28;19924;-58
2021/10/14 01:27:35;;;;;;;;;;;;;;;13.99;51.91;102063.81;5091800;28;20355;-58
2021/10/14 01:30:01;;;;;;;;;;;;;;;13.97;52.09;102073.59;5091923;28;20376;-58
2021/10/14 01:32:28;;;;;;;;;;;;;;;13.95;52.13;102072.81;5091885;28;19930;-58
2021/10/14 01:34:54;;;;;;;;;;;;;;;13.91;52.16;102072.09;5092091;28;19935;-58
2021/10/14 01:37:21;;;;;;;;;;;;;;;13.88;52.31;102080.19;5091951;28;20289;-57
2021/10/14 01:39:47;;;;;;;;;;;;;;;13.82;52.65;102076.06;5091678;28;19924;-58
2021/10/14 01:42:14;;;;;;;;;;;;;;;13.76;52.42;102080.78;5091782;28;20368;-58
2021/10/14 01:44:41;;;;;;;;;;;;;;;13.71;52.74;102081.88;5091902;28;20376;-58
2021/10/14 01:47:08;;;;;;;;;;;;;;;13.61;52.91;102080.59;5091817;28;19928;-59
2021/10/14 01:49:34;;;;;;;;;;;;;;;13.53;53.03;102086.25;5091371;28;20337;-58
2021/10/14 01:52:01;;;;;;;;;;;;;;;13.51;53.07;102074.91;5085614;28;20330;-59
2021/10/14 01:54:27;;;;;;;;;;;;;;;13.53;53.16;102080.97;5091854;28;19924;-58
2021/10/14 01:56:54;;;;;;;;;;;;;;;13.55;53.24;102084.38;5093983;28;19924;-65
2021/10/14 01:59:20;;;;;;;;;;;;;;;13.52;53.46;102095.09;5095262;28;19924;-58
2021/10/14 02:01:47;;;;;;;;;;;;;;;13.50;53.27;102093.44;5095434;28;19928;-58
2021/10/14 02:04:13;;;;;;;;;;;;;;;13.49;53.41;102089.94;5095369;28;19928;-58
2021/10/14 02:06:40;;;;;;;;;;;;;;;13.48;53.38;102084.75;5093820;28;19931;-61
2021/10/14 02:09:06;;;;;;;;;;;;;;;13.47;53.54;102093.56;5091982;28;20009;-59
2021/10/14 02:11:33;;;;;;;;;;;;;;;13.44;53.57;102085.81;5094914;28;19977;-59
2021/10/14 02:13:59;;;;;;;;;;;;;;;13.40;53.81;102093.00;5095282;28;19924;-62
2021/10/14 02:16:26;;;;;;;;;;;;;;;13.38;53.76;102092.22;5093817;28;19947;-62
2021/10/14 02:18:53;;;;;;;;;;;;;;;13.35;53.77;102092.34;5080848;28;19924;-58
2021/10/14 02:21:19;;;;;;;;;;;;;;;13.35;53.80;102092.34;5095239;28;19924;-58
2021/10/14 02:23:46;;;;;;;;;;;;;;;13.35;53.77;102095.81;5093520;28;19931;-58
2021/10/14 02:26:12;;;;;;;;;;;;;;;13.34;53.79;102094.09;5094747;28;19977;-58
2021/10/14 02:28:39;;;;;;;;;;;;;;;13.31;53.75;102091.63;5093932;28;19927;-58
2021/10/14 02:31:05;;;;;;;;;;;;;;;13.28;53.97;102097.06;5090504;28;19927;-58
2021/10/14 02:33:32;;;;;;;;;;;;;;;13.21;54.06;102091.19;5094502;28;20027;-58
2021/10/14 02:35:58;;;;;;;;;;;;;;;13.23;54.01;102099.91;5094341;28;20383;-57
2021/10/14 02:38:25;;;;;;;;;;;;;;;13.22;53.91;102100.81;5094617;28;20030;-58
2021/10/14 02:40:51;;;;;;;;;;;;;;;13.27;53.98;102105.88;5094207;28;19928;-63
2021/10/14 02:43:18;;;;;;;;;;;;;;;13.31;53.64;102101.34;5094649;28;19924;-66
2021/10/14 02:45:44;;;;;;;;;;;;;;;13.30;53.62;102102.25;5094282;28;20376;-59
2021/10/14 02:48:11;;;;;;;;;;;;;;;13.32;53.66;102089.84;5094502;28;19924;-58
2021/10/14 02:50:38;;;;;;;;;;;;;;;13.34;53.47;102088.00;5094275;28;19924;-58
2021/10/14 02:53:04;;;;;;;;;;;;;;;13.32;53.78;102087.19;5094256;28;19958;-58
2021/10/14 02:55:31;;;;;;;;;;;;;;;13.32;53.59;102088.06;5093460;28;19924;-58
2021/10/14 02:57:57;;;;;;;;;;;;;;;13.31;53.77;102082.88;5094080;28;19924;-58
2021/10/14 03:00:23;;;;;;;;;;;;;;;13.27;53.73;102092.69;5094181;28;19924;-58
2021/10/14 03:02:50;;;;;;;;;;;;;;;13.28;53.70;102093.53;5090757;28;19923;-59
2021/10/14 03:05:17;;;;;;;;;;;;;;;13.29;53.59;102090.00;5090729;28;19928;-58
2021/10/14 03:07:43;;;;;;;;;;;;;;;13.25;53.73;102084.00;5089497;28;19930;-58
2021/10/14 03:10:10;;;;;;;;;;;;;;;13.22;53.73;102090.28;5090624;28;19928;-58
2021/10/14 03:12:36;;;;;;;;;;;;;;;13.20;53.93;102088.63;5087235;28;19928;-58
2021/10/14 03:15:03;;;;;;;;;;;;;;;13.20;53.79;102086.88;5090827;28;19935;-59
2021/10/14 03:17:30;;;;;;;;;;;;;;;13.23;53.90;102101.69;5083327;28;20579;-65
2021/10/14 03:19:56;;;;;;;;;;;;;;;13.21;53.83;102088.56;5083979;28;19924;-59
2021/10/14 03:22:23;;;;;;;;;;;;;;;13.16;53.85;102094.97;5090320;28;19935;-58
2021/10/14 03:24:49;;;;;;;;;;;;;;;13.15;53.72;102094.09;5090449;28;19924;-58
2021/10/14 03:27:16;;;;;;;;;;;;;;;13.10;53.90;102092.63;5090650;28;19932;-58
2021/10/14 03:29:42;;;;;;;;;;;;;;;13.09;53.79;102093.53;5088623;28;19935;-58
2021/10/14 03:32:09;;;;;;;;;;;;;;;13.07;53.80;102091.81;5088580;28;19928;-58
2021/10/14 03:34:35;;;;;;;;;;;;;;;13.04;53.58;102094.63;5090141;28;19932;-58
2021/10/14 03:37:02;;;;;;;;;;;;;;;13.03;53.45;102099.97;5084929;28;19929;-62
2021/10/14 03:39:29;;;;;;;;;;;;;;;13.01;53.51;102094.72;5085017;28;19942;-57
2021/10/14 03:41:56;;;;;;;;;;;;;;;12.97;53.54;102103.72;5089943;28;19928;-57
2021/10/14 03:44:22;;;;;;;;;;;;;;;12.94;53.39;102100.34;5089083;28;19930;-58
2021/10/14 03:46:49;;;;;;;;;;;;;;;12.89;53.36;102100.56;5090038;28;19985;-58
2021/10/14 03:49:15;;;;;;;;;;;;;;;12.83;53.69;102104.31;5089717;28;19928;-58
2021/10/14 03:51:42;;;;;;;;;;;;;;;12.72;53.49;102102.19;5090147;28;19924;-58
2021/10/14 03:54:09;;;;;;;;;;;;;;;12.69;53.41;102112.00;5089964;28;19928;-58
2021/10/14 03:56:36;;;;;;;;;;;;;;;12.65;53.27;102115.69;5090174;28;19931;-58
2021/10/14 03:59:03;;;;;;;;;;;;;;;12.61;53.37;102116.72;5089874;28;19966;-58
2021/10/14 04:01:29;;;;;;;;;;;;;;;12.54;53.36;102130.16;5087133;28;19924;-58
2021/10/14 04:04:00;;;;;;;;;;;;;;;12.49;53.46;102132.13;5088455;28;19973;-58
2021/10/14 04:06:35;;;;;;;;;;;;;;;12.43;53.48;102134.16;5076657;28;19932;-57
2021/10/14 04:09:05;;;;;;;;;;;;;;;12.37;53.42;102133.50;5089339;28;19924;-58
2021/10/14 04:11:33;;;;;;;;;;;;;;;12.34;53.50;102144.16;5089410;28;19924;-58
2021/10/14 04:14:00;;;;;;;;;;;;;;;12.29;53.36;102148.78;5089568;28;20404;-58
2021/10/14 04:16:26;;;;;;;;;;;;;;;12.26;53.41;102148.88;5089547;28;19928;-58
2021/10/14 04:18:53;;;;;;;;;;;;;;;12.25;53.32;102149.78;5076126;28;19924;-58
2021/10/14 04:21:19;;;;;;;;;;;;;;;12.26;53.10;102151.50;5089409;28;19924;-58
2021/10/14 04:23:46;;;;;;;;;;;;;;;12.28;52.99;102146.19;5089231;28;19931;-58
2021/10/14 04:26:12;;;;;;;;;;;;;;;12.27;52.82;102149.75;5089630;28;19924;-58
2021/10/14 04:28:39;;;;;;;;;;;;;;;12.20;52.88;102150.00;5084535;28;19974;-59
2021/10/14 04:31:06;;;;;;;;;;;;;;;12.21;52.72;102148.22;5089550;28;19931;-59
2021/10/14 04:33:35;;;;;;;;;;;;;;;12.21;52.60;102133.28;5089583;28;20281;-59
2021/10/14 04:36:04;;;;;;;;;;;;;;;12.23;52.53;102144.59;5076795;28;19925;-58
2021/10/14 04:38:30;;;;;;;;;;;;;;;12.24;52.30;102142.84;5082215;28;20273;-65
2021/10/14 04:40:57;;;;;;;;;;;;;;;12.23;52.21;102139.34;5080120;28;19931;-57
2021/10/14 04:43:24;;;;;;;;;;;;;;;12.21;52.28;102143.81;5088681;28;20285;-57
2021/10/14 04:45:50;;;;;;;;;;;;;;;12.17;52.32;102147.47;5089011;28;19930;-58
2021/10/14 04:48:17;;;;;;;;;;;;;;;12.21;52.00;102156.09;5089055;28;20018;-57
2021/10/14 04:50:44;;;;;;;;;;;;;;;12.13;52.13;102147.69;5088970;28;20342;-58
2021/10/14 04:53:10;;;;;;;;;;;;;;;12.08;52.25;102147.88;5089072;28;19924;-58
2021/10/14 04:55:37;;;;;;;;;;;;;;;12.07;52.31;102144.38;5089224;28;19970;-58
2021/10/14 04:58:04;;;;;;;;;;;;;;;12.11;52.29;102155.63;5089225;28;20289;-58
2021/10/14 05:00:31;;;;;;;;;;;;;;;12.05;52.16;102151.47;5083344;28;19925;-58
2021/10/14 05:02:57;;;;;;;;;;;;;;;12.01;52.34;102146.38;5086465;28;20269;-61
2021/10/14 05:05:24;;;;;;;;;;;;;;;11.99;52.61;102142.97;5083867;28;19970;-58
2021/10/14 05:07:51;;;;;;;;;;;;;;;12.03;52.44;102144.56;5087275;28;20376;-59
2021/10/14 05:10:17;;;;;;;;;;;;;;;11.99;52.57;102150.88;5088552;28;19924;-58
2021/10/14 05:12:44;;;;;;;;;;;;;;;11.93;52.54;102152.78;5088809;28;19924;-61
2021/10/14 05:15:10;;;;;;;;;;;;;;;11.67;53.38;102153.81;5088807;28;19928;-59
2021/10/14 05:17:37;;;;;;;;;;;;;;;11.72;53.26;102157.13;5080109;28;19925;-58
2021/10/14 05:20:05;;;;;;;;;;;;;;;11.80;53.03;102161.22;5083281;28;19932;-59
2021/10/14 05:22:31;;;;;;;;;;;;;;;11.80;53.08;102164.72;5079970;28;19935;-58
2021/10/14 05:24:58;;;;;;;;;;;;;;;11.79;52.99;102159.50;5088476;28;19928;-59
2021/10/14 05:27:24;;;;;;;;;;;;;;;11.77;53.15;102180.63;5082547;28;19924;-58
2021/10/14 05:29:51;;;;;;;;;;;;;;;11.74;53.28;102178.09;5088644;28;19924;-58
2021/10/14 05:32:17;;;;;;;;;;;;;;;11.71;53.34;102181.69;5091619;28;19924;-58
2021/10/14 05:34:44;;;;;;;;;;;;;;;11.71;53.29;102181.69;5085010;28;19925;-59
2021/10/14 05:37:10;;;;;;;;;;;;;;;11.76;53.36;102189.41;5076125;28;19931;-59
2021/10/14 05:39:37;;;;;;;;;;;;;;;11.77;53.35;102185.88;5092494;28;19931;-59
2021/10/14 05:42:03;;;;;;;;;;;;;;;11.74;53.52;102191.25;5091275;28;19932;-58
2021/10/14 05:44:30;;;;;;;;;;;;;;;11.70;53.50;102198.38;5092384;28;19931;-59
2021/10/14 05:46:56;;;;;;;;;;;;;;;11.72;53.59;102201.81;5092292;28;19928;-57
2021/10/14 05:49:23;;;;;;;;;;;;;;;11.71;53.66;102200.09;5092184;28;19928;-58
2021/10/14 05:51:49;;;;;;;;;;;;;;;11.70;53.61;102200.16;5092202;28;19924;-58
2021/10/14 05:54:16;;;;;;;;;;;;;;;11.77;53.58;102186.72;5091356;28;20330;-60
2021/10/14 05:56:43;;;;;;;;;;;;;;;11.53;54.05;102191.13;5092298;28;19925;-59
2021/10/14 05:59:09;;;;;;;;;;;;;;;11.56;54.01;102190.16;5091598;28;19931;-65
2021/10/14 06:01:36;;;;;;;;;;;;;;;11.55;53.97;102193.72;5091775;28;19928;-62
2021/10/14 06:04:02;;;;;;;;;;;;;;;11.57;53.95;102187.47;5091776;28;19936;-59
2021/10/14 06:06:29;;;;;;;;;;;;;;;11.63;53.78;102194.28;5091921;28;19924;-59
2021/10/14 06:08:56;;;;;;;;;;;;;;;11.64;53.88;102190.72;5091691;28;19932;-59
2021/10/14 06:11:22;;;;;;;;;;;;;;;11.58;53.86;102183.09;5090456;28;20342;-60
2021/10/14 06:13:49;;;;;;;;;;;;;;;11.56;53.99;102193.63;5083072;28;19943;-59
2021/10/14 06:16:15;;;;;;;;;;;;;;;11.57;54.02;102199.78;5080536;28;19928;-59
2021/10/14 06:18:42;;;;;;;;;;;;;;;11.55;54.13;102191.06;5077418;28;19923;-59
2021/10/14 06:21:08;;;;;;;;;;;;;;;11.57;54.15;102195.38;5082828;28;19998;-60
2021/10/14 06:23:35;;;;;;;;;;;;;;;11.57;54.25;102192.72;5071952;28;19998;-59
2021/10/14 06:26:01;;;;;;;;;;;;;;;11.56;54.29;102190.16;5071178;28;19932;-59
2021/10/14 06:28:28;;;;;;;;;;;;;;;11.58;54.41;102185.72;5077288;28;19932;-59
2021/10/14 06:30:56;;;;;;;;;;;;;;;11.62;54.22;102187.31;5075616;28;19989;-59
2021/10/14 06:33:23;;;;;;;;;;;;;;;11.67;54.30;102195.00;5073018;28;20057;-59
2021/10/14 06:35:49;;;;;;;;;;;;;;;11.71;54.29;102186.94;5076319;28;19931;-59
2021/10/14 06:38:16;;;;;;;;;;;;;;;11.74;54.20;102181.59;5074611;28;19977;-59
2021/10/14 06:40:42;;;;;;;;;;;;;;;11.81;54.23;102195.34;5073621;28;19925;-59
2021/10/14 06:43:09;;;;;;;;;;;;;;;11.84;54.28;102194.38;5073441;28;19928;-59
2021/10/14 06:45:36;;;;;;;;;;;;;;;11.95;53.88;102193.94;5085715;28;19930;-59
2021/10/14 06:48:03;;;;;;;;;;;;;;;12.10;53.58;102201.28;5090453;28;19931;-60
2021/10/14 06:50:36;;;;;;;;;;;;;;;12.18;53.48;102199.19;5091151;28;19977;-66
2021/10/14 06:53:08;;;;;;;;;;;;;;;12.36;53.01;102194.13;5090491;28;19928;-63
2021/10/14 06:55:39;;;;;;;;;;;;;;;12.62;52.51;102200.06;5090617;28;19931;-60
2021/10/14 06:58:06;;;;;;;;;;;;;;;12.83;51.78;102199.16;5090268;28;19954;-64
2021/10/14 07:00:32;;;;;;;;;;;;;;;13.04;51.45;102204.44;5090110;28;20308;-62
2021/10/14 07:02:59;;;;;;;;;;;;;;;13.31;50.95;102206.78;5090588;28;19924;-62
2021/10/14 07:05:28;;;;;;;;;;;;;;;13.52;50.25;102203.22;5086456;28;20459;-61
2021/10/14 07:07:54;;;;;;;;;;;;;;;13.74;50.00;102196.06;5089904;28;19951;-59
2021/10/14 07:10:22;;;;;;;;;;;;;;;13.87;49.74;102199.84;5089414;28;19928;-59
2021/10/14 07:12:49;;;;;;;;;;;;;;;14.03;49.12;102202.63;5090438;28;20303;-61
2021/10/14 07:15:16;;;;;;;;;;;;;;;14.24;48.68;102202.53;5090522;28;19978;-59
2021/10/14 07:17:42;;;;;;;;;;;;;;;14.42;48.26;102213.97;5081077;28;19985;-59
2021/10/14 07:20:09;;;;;;;;;;;;;;;14.60;47.78;102220.97;5085212;28;20014;-59
2021/10/14 07:22:36;;;;;;;;;;;;;;;14.77;47.45;102219.31;5090084;28;20330;-61
2021/10/14 07:25:02;;;;;;;;;;;;;;;14.96;47.40;102220.06;5088520;28;20459;-62
2021/10/14 07:27:29;;;;;;;;;;;;;;;15.09;46.82;102224.72;5090207;28;19928;-60
2021/10/14 07:29:56;;;;;;;;;;;;;;;15.24;46.88;102225.72;5090334;28;19967;-59
2021/10/14 07:32:22;;;;;;;;;;;;;;;15.34;46.30;102226.94;5089926;28;20308;-60
2021/10/14 07:34:49;;;;;;;;;;;;;;;15.54;46.18;102231.16;5088639;28;19971;-62
2021/10/14 07:37:19;;;;;;;;;;;;;;;15.66;45.63;102219.06;5084949;28;20381;-59
2021/10/14 07:39:46;;;;;;;;;;;;;;;15.86;45.61;102222.41;5071473;28;20007;-60
2021/10/14 07:42:13;;;;;;;;;;;;;;;16.03;44.89;102226.78;5075986;28;20173;-61
2021/10/14 07:44:40;;;;;;;;;;;;;;;16.20;44.49;102225.81;5072200;28;20373;-59
2021/10/14 07:47:06;;;;;;;;;;;;;;;16.30;44.28;102229.66;5070470;28;19933;-61
2021/10/14 07:49:33;;;;;;;;;;;;;;;16.38;44.10;102222.13;5071872;28;19925;-59
2021/10/14 07:51:59;;;;;;;;;;;;;;;16.53;44.09;102227.47;5069942;28;19947;-59
2021/10/14 07:54:26;;;;;;;;;;;;;;;16.58;44.05;102228.94;5069315;28;19931;-59
2021/10/14 07:56:52;;;;;;;;;;;;;;;16.70;43.53;102230.00;5071594;28;20023;-60
2021/10/14 07:59:19;;;;;;;;;;;;;;;16.62;44.06;102233.09;5077565;28;19928;-59
2021/10/14 08:01:46;;;;;;;;;;;;;;;16.81;43.56;102229.34;5071759;28;19928;-59
2021/10/14 08:04:13;;;;;;;;;;;;;;;16.76;43.50;102232.28;5070339;28;19935;-60
2021/10/14 08:06:40;;;;;;;;;;;;;;;16.86;43.75;102221.13;5074810;28;19925;-60
2021/10/14 08:09:06;;;;;;;;;;;;;;;16.95;43.27;102217.94;5070613;28;19978;-59
2021/10/14 08:11:33;;;;;;;;;;;;;;;17.12;42.82;102224.91;5073403;28;19932;-60
2021/10/14 08:14:00;;;;;;;;;;;;;;;17.29;42.44;102222.09;5074058;28;19993;-62
2021/10/14 08:16:26;;;;;;;;;;;;;;;17.48;42.33;102218.28;5071426;28;19924;-61
2021/10/14 08:18:53;;;;;;;;;;;;;;;17.74;41.62;102231.72;5070785;28;19924;-60
2021/10/14 08:21:19;;;;;;;;;;;;;;;17.95;41.37;102226.84;5071181;28;19924;-61
2021/10/14 08:23:46;;;;;;;;;;;;;;;18.14;41.03;102229.19;5073794;28;19981;-59
2021/10/14 08:26:12;;;;;;;;;;;;;;;18.34;40.62;102227.03;5069979;28;19951;-60
2021/10/14 08:28:39;;;;;;;;;;;;;;;18.51;40.10;102224.13;5070784;28;20289;-59
2021/10/14 08:31:06;;;;;;;;;;;;;;;18.58;40.25;102229.88;5078108;28;19931;-59
2021/10/14 08:33:32;;;;;;;;;;;;;;;18.77;39.57;102225.00;5086480;28;20347;-59
2021/10/14 08:36:03;;;;;;;;;;;;;;;18.88;39.67;102213.63;5071164;28;19928;-59
2021/10/14 08:38:30;;;;;;;;;;;;;;;18.98;39.17;102221.00;5069691;28;19924;-60
2021/10/14 08:40:56;;;;;;;;;;;;;;;19.14;38.94;102226.97;5087042;28;20014;-59
2021/10/14 08:43:26;;;;;;;;;;;;;;;19.22;38.80;102227.31;5088300;28;20482;-60
2021/10/14 08:45:53;;;;;;;;;;;;;;;19.25;38.74;102223.56;5088067;28;19931;-61
2021/10/14 08:48:19;;;;;;;;;;;;;;;19.48;38.48;102218.44;5068917;28;19951;-60
2021/10/14 08:50:47;;;;;;;;;;;;;;;19.53;37.78;102222.47;5069927;28;19928;-59
2021/10/14 08:53:14;;;;;;;;;;;;;;;19.73;37.73;102218.38;5088391;28;20394;-60
2021/10/14 08:55:41;;;;;;;;;;;;;;;19.79;37.16;102218.91;5088962;28;19924;-60
2021/10/14 08:58:08;;;;;;;;;;;;;;;19.98;37.03;102216.59;5088155;28;19928;-59
2021/10/14 09:00:35;;;;;;;;;;;;;;;20.19;36.54;102208.00;5088856;28;19924;-60
2021/10/14 09:03:23;;;;;;;;;;;;;;;20.16;36.14;102213.56;5088509;28;19928;-59
2021/10/14 09:05:49;;;;;;;;;;;;;;;20.35;36.00;102205.03;5086274;28;19935;-59
2021/10/14 09:08:31;;;;;;;;;;;;;;;20.61;35.82;102219.06;5078263;28;19978;-59
2021/10/14 09:11:05;;;;;;;;;;;;;;;20.66;35.55;102216.06;5092062;28;20605;-61
2021/10/14 09:13:32;;;;;;;;;;;;;;;20.80;35.46;102215.88;5092472;28;19949;-61
2021/10/14 09:16:18;;;;;;;;;;;;;;;21.00;34.89;102217.00;5092791;28;19932;-59
2021/10/14 09:18:45;;;;;;;;;;;;;;;21.20;34.49;102217.25;5092107;28;19924;-59
2021/10/14 09:21:19;;;;;;;;;;;;;;;21.45;33.99;102215.34;5092733;28;19925;-61
2021/10/14 09:23:46;;;;;;;;;;;;;;;21.53;33.72;102208.41;5091186;28;19932;-59
2021/10/14 09:26:13;;;;;;;;;;;;;;;21.59;33.62;102219.59;5092780;28;19947;-59
2021/10/14 09:28:39;;;;;;;;;;;;;;;21.46;33.89;102215.19;5092118;28;19928;-59
2021/10/14 09:31:07;;;;;;;;;;;;;;;21.84;33.39;102213.13;5092398;28;19924;-59
2021/10/14 09:33:35;;;;;;;;;;;;;;;22.02;32.85;102206.25;5092413;28;19924;-59
2021/10/14 09:36:22;;;;;;;;;;;;;;;22.12;32.94;102213.53;5092336;28;19998;-60
2021/10/14 09:38:50;;;;;;;;;;;;;;;22.24;32.67;102211.66;5091473;28;19934;-59
2021/10/14 09:41:18;;;;;;;;;;;;;;;22.11;32.91;102201.97;5079329;28;19928;-60
2021/10/14 09:43:52;;;;;;;;;;;;;;;22.43;32.65;102205.66;5092112;28;20292;-60
2021/10/14 09:46:38;;;;;;;;;;;;;;;22.19;32.62;102206.69;5092187;28;20246;-60
2021/10/14 09:49:06;;;;;;;;;;;;;;;22.35;32.47;102201.75;5091538;28;19924;-59
2021/10/14 09:51:33;;;;;;;;;;;;;;;22.57;32.27;102199.97;5092224;28;19928;-59
2021/10/14 09:54:00;;;;;;;;;;;;;;;22.66;32.28;102201.00;5091793;28;20300;-60
2021/10/14 09:56:27;;;;;;;;;;;;;;;22.74;32.09;102200.34;5073910;28;19924;-60
2021/10/14 09:58:56;;;;;;;;;;;;;;;22.80;31.97;102199.84;5083846;28;19941;-60
2021/10/14 10:01:25;;;;;;;;;;;;;;;22.75;32.07;102199.38;5091250;28;20041;-60
2021/10/14 10:03:52;;;;;;;;;;;;;;;22.95;31.53;102209.22;5091830;28;19924;-61
2021/10/14 10:06:22;;;;;;;;;;;;;;;23.05;31.47;102206.59;5091569;28;20304;-59
2021/10/14 10:08:50;;;;;;;;;;;;;;;23.05;31.77;102203.09;5091221;28;19932;-59
2021/10/14 10:11:18;;;;;;;;;;;;;;;23.28;31.46;102209.97;5091614;28;19924;-60
2021/10/14 10:13:46;;;;;;;;;;;;;;;23.45;31.37;102203.13;5082856;28;20027;-59
2021/10/14 10:16:13;;;;;;;;;;;;;;;23.52;30.92;102205.28;5091523;28;19929;-60
2021/10/14 10:18:41;;;;;;;;;;;;;;;23.57;31.08;102208.38;5076822;28;19924;-60
2021/10/14 10:21:09;;;;;;;;;;;;;;;23.70;30.67;102200.09;5091813;28;20458;-59
2021/10/14 10:23:42;;;;;;;;;;;;;;;23.87;30.48;102202.09;5091507;28;19924;-60
2021/10/14 10:26:35;;;;;;;;;;;;;;;23.91;30.54;102198.19;5090783;28;20350;-60
2021/10/14 10:29:14;;;;;;;;;;;;;;;23.72;30.41;102200.78;5073806;28;19924;-60
2021/10/14 10:37:17;;;;;;;;;;;;;;;24.10;29.66;102185.78;5076201;28;19960;-60
2021/10/14 10:39:46;;;;;;;;;;;;;;;24.14;29.65;102187.19;5078813;28;19969;-60
2021/10/14 10:42:14;;;;;;;;;;;;;;;24.21;29.55;102193.66;5091045;28;19924;-60
2021/10/14 10:44:41;;;;;;;;;;;;;;;24.34;29.09;102190.72;5090639;28;19928;-59
2021/10/14 10:47:27;;;;;;;;;;;;;;;24.43;29.09;102183.66;5089075;28;19924;-58
2021/10/14 10:49:54;;;;;;;;;;;;;;;24.36;28.97;102179.84;5070740;28;19982;-59
2021/10/14 10:52:31;;;;;;;;;;;;;;;24.43;28.73;102184.47;5070553;28;19925;-59
2021/10/14 10:54:58;;;;;;;;;;;;;;;24.57;28.78;102183.19;5078360;28;19931;-59
2021/10/14 10:57:47;;;;;;;;;;;;;;;24.60;28.50;102179.38;5090895;28;19931;-60
2021/10/14 11:00:14;;;;;;;;;;;;;;;24.44;28.57;102180.81;5091016;28;19951;-60
2021/10/14 11:02:41;;;;;;;;;;;;;;;24.62;28.27;102175.53;5090155;28;19924;-58
2021/10/14 11:05:08;;;;;;;;;;;;;;;24.66;27.96;102169.91;5090224;28;19924;-59
2021/10/14 11:07:35;;;;;;;;;;;;;;;24.70;27.74;102172.16;5090627;28;20383;-59
2021/10/14 11:10:02;;;;;;;;;;;;;;;24.76;27.70;102173.44;5089982;28;19959;-60
2021/10/14 11:12:29;;;;;;;;;;;;;;;24.72;27.87;102174.69;5090294;28;20438;-59
2021/10/14 11:14:55;;;;;;;;;;;;;;;24.86;27.76;102171.56;5081421;28;20733;-59
2021/10/14 11:17:26;;;;;;;;;;;;;;;24.86;27.92;102163.50;5083862;28;19925;-63
2021/10/14 11:20:06;;;;;;;;;;;;;;;24.97;27.62;102164.31;5080429;28;19928;-58
2021/10/14 11:22:33;;;;;;;;;;;;;;;25.01;27.36;102150.44;5076435;28;20383;-58
2021/10/14 11:25:03;;;;;;;;;;;;;;;25.01;27.38;102152.28;5071290;28;19924;-60
2021/10/14 11:27:30;;;;;;;;;;;;;;;24.92;27.50;102152.19;5075267;28;19929;-58
2021/10/14 11:30:18;;;;;;;;;;;;;;;24.64;27.68;102147.72;5080903;28;20015;-59
2021/10/14 11:33:10;;;;;;;;;;;;;;;24.61;27.50;102138.13;5079161;28;20057;-60
2021/10/14 11:35:56;;;;;;;;;;;;;;;24.93;27.20;102139.59;5084496;28;19924;-60
2021/10/14 11:38:22;;;;;;;;;;;;;;;24.98;26.80;102131.94;5089547;28;19924;-59
2021/10/14 11:40:49;;;;;;;;;;;;;;;24.92;26.98;102125.34;5089573;28;19969;-58
2021/10/14 11:43:16;;;;;;;;;;;;;;;25.15;26.72;102122.22;5089908;28;19950;-60
2021/10/14 11:45:44;;;;;;;;;;;;;;;25.32;26.46;102117.03;5089849;28;19969;-60
2021/10/14 11:48:30;;;;;;;;;;;;;;;25.32;26.50;102111.66;5089476;28;19928;-59
2021/10/14 11:51:00;;;;;;;;;;;;;;;25.46;26.38;102097.78;5083474;28;19924;-59
2021/10/14 11:53:27;;;;;;;;;;;;;;;25.30;26.50;102102.94;5089875;28;19931;-58
2021/10/14 11:56:00;;;;;;;;;;;;;;;25.42;26.31;102097.22;5089577;28;19928;-60
2021/10/14 11:58:27;;;;;;;;;;;;;;;25.55;26.13;102096.00;5089505;28;19931;-65
2021/10/14 12:00:55;;;;;;;;;;;;;;;25.73;26.13;102094.16;5089385;28;19924;-60
2021/10/14 12:03:22;;;;;;;;;;;;;;;25.79;25.98;102094.53;5088925;28;20305;-60
2021/10/14 12:05:49;;;;;;;;;;;;;;;25.74;25.72;102090.47;5089508;28;19987;-60
2021/10/14 12:08:17;;;;;;;;;;;;;;;25.87;25.92;102090.06;5088098;28;19925;-58
2021/10/14 12:10:48;;;;;;;;;;;;;;;25.81;25.74;102085.31;5088842;28;20357;-59
2021/10/14 12:13:15;;;;;;;;;;;;;;;25.97;25.79;102073.00;5089245;28;19924;-59
2021/10/14 12:15:42;;;;;;;;;;;;;;;25.95;25.51;102075.84;5088694;28;19990;-61
2021/10/14 12:18:26;;;;;;;;;;;;;;;26.06;25.45;102081.00;5076195;28;19932;-59
2021/10/14 12:20:58;;;;;;;;;;;;;;;26.12;25.20;102071.47;5076718;28;19924;-59
2021/10/14 12:23:28;;;;;;;;;;;;;;;26.09;25.29;102071.78;5088600;28;19924;-65
2021/10/14 12:26:12;;;;;;;;;;;;;;;26.09;25.21;102069.09;5088986;28;19931;-61
2021/10/14 12:28:41;;;;;;;;;;;;;;;26.10;25.28;102070.78;5088558;28;19932;-59
2021/10/14 12:31:09;;;;;;;;;;;;;;;26.12;25.15;102055.31;5089374;28;19932;-60
2021/10/14 12:33:36;;;;;;;;;;;;;;;26.19;24.93;102063.59;5089312;28;20396;-60
2021/10/14 12:36:02;;;;;;;;;;;;;;;26.27;24.95;102060.97;5075139;28;19935;-59
2021/10/14 12:38:33;;;;;;;;;;;;;;;26.14;25.15;102057.84;5088888;28;19958;-65
2021/10/14 12:41:05;;;;;;;;;;;;;;;26.13;25.04;102056.16;5086978;28;19931;-60
2021/10/14 12:43:43;;;;;;;;;;;;;;;25.92;25.12;102049.25;5083038;28;20273;-60
2021/10/14 12:46:21;;;;;;;;;;;;;;;26.04;24.96;102053.41;5086243;28;20261;-60